createdAt,value
2023-02-22T00:02:10.734Z,6.10
2023-02-22T00:04:39.649Z,6.10
2023-02-22T00:07:07.415Z,6.00
2023-02-22T00:09:34.256Z,6.10
2023-02-22T00:12:01.303Z,6.00
2023-02-22T00:14:28.526Z,6.20
2023-02-22T00:16:59.681Z,6.20
2023-02-22T00:19:28.103Z,6.20
2023-02-22T00:21:55.139Z,6.10
2023-02-22T00:24:24.662Z,6.20
2023-02-22T00:26:55.475Z,6.10
2023-02-22T00:29:23.430Z,6.10
2023-02-22T00:31:50.615Z,6.20
2023-02-22T00:34:17.526Z,6.20
2023-02-22T00:36:50.575Z,6.20
2023-02-22T00:39:18.135Z,6.20
2023-02-22T00:41:45.246Z,6.30
2023-02-22T00:44:12.417Z,6.30
2023-02-22T00:46:39.271Z,6.40
2023-02-22T00:49:06.091Z,6.30
2023-02-22T00:51:33.935Z,6.40
2023-02-22T00:54:00.954Z,6.40
2023-02-22T00:56:27.836Z,6.40
2023-02-22T00:58:54.639Z,6.40
2023-02-22T01:01:21.446Z,6.50
2023-02-22T01:03:48.624Z,6.40
2023-02-22T01:06:15.714Z,6.40
2023-02-22T01:08:47.998Z,6.40
2023-02-22T01:11:18.696Z,6.40
2023-02-22T01:13:45.791Z,6.40
2023-02-22T01:16:12.788Z,6.50
2023-02-22T01:18:39.972Z,6.40
2023-02-22T01:21:08.546Z,6.40
2023-02-22T01:23:35.508Z,6.30
2023-02-22T01:26:05.628Z,6.30
2023-02-22T01:28:33.599Z,6.30
2023-02-22T01:31:01.701Z,6.20
2023-02-22T01:33:28.816Z,6.20
2023-02-22T01:35:55.663Z,6.30
2023-02-22T01:38:22.735Z,6.30
2023-02-22T01:40:51.398Z,6.30
2023-02-22T01:43:25.872Z,6.30
2023-02-22T01:46:08.450Z,6.30
2023-02-22T01:48:47.592Z,6.30
2023-02-22T01:51:37.798Z,6.20
2023-02-22T01:54:07.577Z,6.00
2023-02-22T01:56:38.156Z,6.00
2023-02-22T01:59:09.824Z,5.90
2023-02-22T02:01:39.587Z,5.90
2023-02-22T02:04:10.819Z,5.90
2023-02-22T02:06:38.595Z,5.90
2023-02-22T02:09:30.225Z,6.00
2023-02-22T02:12:04.994Z,6.10
2023-02-22T02:14:32.845Z,6.10
2023-02-22T02:17:03.664Z,6.20
2023-02-22T02:20:00.556Z,6.30
2023-02-22T02:22:34.319Z,6.30
2023-02-22T02:25:35.640Z,6.40
2023-02-22T02:28:26.376Z,6.40
2023-02-22T02:31:18.497Z,6.40
2023-02-22T02:34:02.863Z,6.40
2023-02-22T02:36:55.206Z,6.40
2023-02-22T02:39:53.393Z,6.40
2023-02-22T02:42:25.388Z,6.40
2023-02-22T02:45:09.939Z,6.40
2023-02-22T02:47:53.594Z,6.50
2023-02-22T02:50:25.800Z,6.50
2023-02-22T02:52:55.395Z,6.50
2023-02-22T02:55:23.384Z,6.40
2023-02-22T02:57:50.138Z,6.40
2023-02-22T03:00:24.508Z,6.40
2023-02-22T03:03:03.200Z,6.40
2023-02-22T03:05:42.608Z,6.40
2023-02-22T03:08:43.250Z,6.40
2023-02-22T03:11:16.774Z,6.30
2023-02-22T03:14:05.409Z,6.20
2023-02-22T03:17:00.800Z,6.20
2023-02-22T03:19:38.263Z,6.20
2023-02-22T03:22:32.964Z,6.30
2023-02-22T03:25:07.318Z,6.40
2023-02-22T03:27:49.389Z,6.60
2023-02-22T03:30:28.039Z,6.40
2023-02-22T03:33:03.273Z,6.40
2023-02-22T03:35:35.313Z,6.40
2023-02-22T03:38:06.346Z,6.40
2023-02-22T03:40:43.399Z,6.40
2023-02-22T03:43:21.869Z,6.50
2023-02-22T03:45:50.578Z,6.50
2023-02-22T03:48:27.404Z,6.50
2023-02-22T03:50:54.617Z,6.70
2023-02-22T03:53:23.249Z,6.50
2023-02-22T03:55:52.492Z,6.50
2023-02-22T03:58:22.749Z,6.50
2023-02-22T04:00:53.055Z,6.50
2023-02-22T04:03:21.366Z,6.50
2023-02-22T04:05:48.618Z,6.50
2023-02-22T04:08:16.428Z,6.60
2023-02-22T04:10:43.329Z,6.50
2023-02-22T04:13:10.719Z,6.40
2023-02-22T04:15:37.896Z,6.50
2023-02-22T04:18:05.713Z,6.40
2023-02-22T04:20:34.757Z,6.50
2023-02-22T04:23:01.629Z,6.50
2023-02-22T04:25:28.479Z,6.50
2023-02-22T04:27:55.307Z,6.60
2023-02-22T04:30:22.935Z,6.60
2023-02-22T04:32:49.816Z,6.60
2023-02-22T04:35:16.672Z,6.60
2023-02-22T04:37:43.530Z,6.60
2023-02-22T04:40:11.534Z,6.60
2023-02-22T04:42:39.070Z,6.60
2023-02-22T04:45:08.034Z,6.50
2023-02-22T04:47:36.261Z,6.60
2023-02-22T04:50:07.309Z,6.60
2023-02-22T04:52:34.128Z,6.60
2023-02-22T04:55:01.066Z,6.60
2023-02-22T04:57:28.021Z,6.50
2023-02-22T04:59:54.835Z,6.50
2023-02-22T05:02:21.807Z,6.50
2023-02-22T05:04:49.107Z,6.60
2023-02-22T05:07:16.137Z,6.60
2023-02-22T05:09:43.004Z,6.60
2023-02-22T05:12:10.054Z,6.60
2023-02-22T05:14:37.062Z,6.70
2023-02-22T05:17:04.569Z,6.60
2023-02-22T05:19:31.395Z,6.70
2023-02-22T05:21:58.250Z,6.70
2023-02-22T05:24:25.146Z,6.60
2023-02-22T05:26:53.216Z,6.60
2023-02-22T05:29:20.802Z,6.60
2023-02-22T05:31:47.718Z,6.70
2023-02-22T05:34:15.671Z,6.60
2023-02-22T05:36:42.938Z,6.70
2023-02-22T05:39:09.830Z,6.70
2023-02-22T05:41:36.652Z,6.70
2023-02-22T05:44:03.559Z,6.90
2023-02-22T05:46:30.677Z,6.80
2023-02-22T05:48:57.733Z,6.90
2023-02-22T05:51:24.669Z,6.80
2023-02-22T05:53:52.566Z,6.90
2023-02-22T05:56:24.917Z,6.90
2023-02-22T05:58:52.238Z,6.90
2023-02-22T06:01:19.501Z,6.80
2023-02-22T06:03:48.310Z,6.80
2023-02-22T06:06:15.632Z,6.80
2023-02-22T06:08:42.947Z,6.80
2023-02-22T06:11:10.327Z,7.10
2023-02-22T06:13:37.520Z,6.90
2023-02-22T06:16:05.368Z,6.80
2023-02-22T06:18:32.592Z,6.80
2023-02-22T06:21:00.700Z,6.90
2023-02-22T06:23:27.993Z,6.90
2023-02-22T06:25:54.802Z,7.00
2023-02-22T06:28:21.880Z,7.00
2023-02-22T06:30:48.763Z,7.00
2023-02-22T06:33:15.685Z,7.00
2023-02-22T06:35:42.585Z,7.00
2023-02-22T06:38:09.358Z,7.00
2023-02-22T06:40:37.129Z,7.10
2023-02-22T06:43:03.967Z,7.00
2023-02-22T06:45:31.132Z,7.00
2023-02-22T06:47:57.944Z,7.00
2023-02-22T06:50:24.821Z,7.10
2023-02-22T06:52:51.927Z,7.00
2023-02-22T06:55:30.725Z,7.10
2023-02-22T06:57:57.920Z,7.10
2023-02-22T07:00:26.256Z,7.10
2023-02-22T07:02:54.295Z,7.10
2023-02-22T07:05:22.880Z,7.20
2023-02-22T07:07:52.631Z,7.20
2023-02-22T07:10:28.794Z,7.40
2023-02-22T07:12:55.973Z,7.30
2023-02-22T07:15:24.449Z,7.30
2023-02-22T07:17:52.550Z,7.30
2023-02-22T07:20:20.951Z,7.30
2023-02-22T07:22:48.895Z,7.40
2023-02-22T07:25:15.724Z,7.40
2023-02-22T07:27:43.396Z,7.30
2023-02-22T07:30:19.202Z,7.40
2023-02-22T07:32:47.052Z,7.60
2023-02-22T07:35:19.338Z,7.50
2023-02-22T07:37:47.983Z,7.40
2023-02-22T07:40:16.687Z,7.50
2023-02-22T07:43:00.041Z,7.50
2023-02-22T07:45:32.246Z,7.50
2023-02-22T07:48:00.258Z,7.50
2023-02-22T07:50:30.814Z,7.50
2023-02-22T07:52:59.293Z,7.50
2023-02-22T07:55:28.382Z,7.40
2023-02-22T07:57:58.454Z,7.50
2023-02-22T08:00:36.938Z,7.50
2023-02-22T08:03:07.051Z,7.50
2023-02-22T08:05:35.612Z,7.50
2023-02-22T08:08:02.954Z,7.50
2023-02-22T08:10:30.999Z,7.50
2023-02-22T08:12:58.107Z,7.60
2023-02-22T08:15:30.983Z,7.60
2023-02-22T08:18:00.240Z,7.60
2023-02-22T08:20:28.931Z,7.60
2023-02-22T08:22:56.334Z,7.60
2023-02-22T08:25:27.263Z,7.60
2023-02-22T08:27:59.881Z,7.60
2023-02-22T08:30:27.749Z,7.70
2023-02-22T08:32:54.830Z,7.70
2023-02-22T08:35:23.127Z,7.90
2023-02-22T08:37:53.151Z,7.80
2023-02-22T08:40:27.728Z,7.80
2023-02-22T08:42:55.615Z,7.90
2023-02-22T08:45:22.981Z,7.80
2023-02-22T08:47:50.353Z,7.80
2023-02-22T08:50:27.955Z,7.90
2023-02-22T08:52:59.327Z,7.80
2023-02-22T08:55:32.530Z,7.80
2023-02-22T08:58:02.814Z,7.90
2023-02-22T09:00:33.005Z,7.90
2023-02-22T09:03:01.723Z,8.10
2023-02-22T09:05:31.216Z,8.10
2023-02-22T09:07:58.662Z,8.20
2023-02-22T09:10:28.068Z,8.20
2023-02-22T09:12:55.941Z,8.20
2023-02-22T09:15:24.417Z,8.30
2023-02-22T09:17:51.918Z,8.30
2023-02-22T09:20:20.580Z,8.30
2023-02-22T09:22:48.793Z,8.40
2023-02-22T09:25:17.649Z,8.40
2023-02-22T09:27:47.920Z,8.50
2023-02-22T09:30:32.474Z,8.60
2023-02-22T09:33:06.402Z,8.60
2023-02-22T09:35:36.159Z,8.60
2023-02-22T09:38:04.504Z,8.70
2023-02-22T09:40:40.945Z,8.70
2023-02-22T09:43:14.063Z,8.70
2023-02-22T09:46:19.115Z,8.80
2023-02-22T09:49:07.102Z,8.90
2023-02-22T09:51:44.095Z,8.90
2023-02-22T09:54:28.346Z,9.00
2023-02-22T09:56:58.345Z,9.00
2023-02-22T09:59:31.451Z,9.20
2023-02-22T10:02:26.000Z,9.40
2023-02-22T10:05:05.778Z,9.30
2023-02-22T10:07:47.282Z,9.30
2023-02-22T10:10:25.000Z,9.30
2023-02-22T10:13:00.375Z,9.40
2023-02-22T10:15:51.449Z,9.30
2023-02-22T10:18:47.982Z,9.40
2023-02-22T10:21:53.573Z,9.50
2023-02-22T10:24:39.979Z,9.40
2023-02-22T10:27:13.405Z,9.60
2023-02-22T10:29:48.107Z,9.60
2023-02-22T10:32:26.379Z,9.60
2023-02-22T10:34:54.826Z,9.60
2023-02-22T10:37:31.463Z,9.70
2023-02-22T10:40:22.947Z,9.90
2023-02-22T10:42:50.667Z,9.70
2023-02-22T10:45:30.131Z,9.70
2023-02-22T10:47:59.679Z,9.80
2023-02-22T10:50:32.053Z,9.90
2023-02-22T10:52:58.993Z,9.90
2023-02-22T10:55:25.864Z,10.00
2023-02-22T10:58:04.704Z,10.10
2023-02-22T11:00:37.301Z,10.30
2023-02-22T11:03:17.305Z,10.50
2023-02-22T11:05:44.807Z,10.70
2023-02-22T11:08:28.507Z,10.80
2023-02-22T11:11:16.741Z,10.80
2023-02-22T11:13:43.698Z,10.90
2023-02-22T11:16:40.817Z,10.60
2023-02-22T11:19:15.595Z,10.40
2023-02-22T11:21:43.127Z,10.40
2023-02-22T11:24:12.264Z,10.40
2023-02-22T11:26:49.350Z,10.30
2023-02-22T11:29:43.183Z,10.20
2023-02-22T11:32:21.071Z,10.20
2023-02-22T11:35:03.485Z,10.20
2023-02-22T11:37:36.405Z,10.40
2023-02-22T11:40:22.258Z,10.40
2023-02-22T11:43:05.645Z,10.20
2023-02-22T11:45:32.975Z,10.40
2023-02-22T11:48:06.626Z,10.50
2023-02-22T11:50:38.612Z,10.50
2023-02-22T11:53:26.923Z,10.60
2023-02-22T11:56:16.179Z,10.60
2023-02-22T11:58:49.652Z,10.50
2023-02-22T12:01:55.553Z,10.50
2023-02-22T12:04:53.629Z,10.60
2023-02-22T12:07:56.508Z,10.50
2023-02-22T12:10:49.590Z,10.60
2023-02-22T12:13:17.126Z,10.60
2023-02-22T12:15:46.722Z,10.60
2023-02-22T12:18:35.932Z,10.70
2023-02-22T12:21:08.997Z,10.60
2023-02-22T12:23:45.183Z,10.60
2023-02-22T12:26:24.057Z,10.60
2023-02-22T12:28:50.867Z,10.50
2023-02-22T12:31:24.109Z,10.70
2023-02-22T12:34:09.532Z,10.60
2023-02-22T12:36:43.542Z,10.60
2023-02-22T12:39:53.527Z,10.80
2023-02-22T12:42:43.662Z,10.90
2023-02-22T12:45:27.064Z,10.90
2023-02-22T12:48:32.763Z,11.00
2023-02-22T12:51:08.781Z,11.00
2023-02-22T12:53:38.296Z,11.00
2023-02-22T12:56:20.098Z,11.00
2023-02-22T12:58:58.223Z,11.00
2023-02-22T13:01:37.664Z,10.90
2023-02-22T13:04:19.415Z,10.90
2023-02-22T13:07:01.680Z,10.80
2023-02-22T13:10:03.353Z,10.80
2023-02-22T13:12:46.345Z,10.90
2023-02-22T13:15:23.094Z,10.90
2023-02-22T13:18:01.988Z,11.00
2023-02-22T13:20:56.829Z,10.90
2023-02-22T13:24:04.691Z,10.90
2023-02-22T13:26:42.568Z,10.80
2023-02-22T13:29:14.853Z,10.70
2023-02-22T13:32:15.907Z,10.80
2023-02-22T13:35:01.420Z,10.80
2023-02-22T13:37:37.349Z,10.80
2023-02-22T13:40:35.227Z,10.90
2023-02-22T13:43:46.307Z,10.70
2023-02-22T13:46:20.952Z,10.70
2023-02-22T13:49:05.942Z,10.70
2023-02-22T13:51:55.106Z,11.00
2023-02-22T13:54:29.875Z,10.70
2023-02-22T13:56:57.770Z,10.70
2023-02-22T13:59:28.537Z,10.70
2023-02-22T14:01:56.715Z,10.90
2023-02-22T14:04:29.865Z,10.80
2023-02-22T14:07:23.751Z,10.70
2023-02-22T14:09:50.562Z,10.70
2023-02-22T14:12:29.271Z,10.80
2023-02-22T14:15:28.239Z,10.70
2023-02-22T14:18:05.159Z,10.60
2023-02-22T14:20:37.199Z,10.50
2023-02-22T14:23:33.629Z,10.50
2023-02-22T14:26:23.544Z,10.50
2023-02-22T14:28:58.015Z,10.60
2023-02-22T14:31:36.472Z,10.60
2023-02-22T14:34:07.158Z,10.70
2023-02-22T14:36:39.761Z,10.60
2023-02-22T14:39:38.277Z,10.70
2023-02-22T14:42:17.862Z,10.60
2023-02-22T14:44:57.148Z,10.60
2023-02-22T14:47:39.872Z,10.70
2023-02-22T14:50:24.520Z,10.70
2023-02-22T14:53:04.147Z,10.70
2023-02-22T14:55:37.649Z,10.70
2023-02-22T14:58:08.726Z,10.70
2023-02-22T15:00:42.698Z,10.70
2023-02-22T15:03:37.404Z,10.70
2023-02-22T15:06:23.285Z,10.60
2023-02-22T15:09:23.556Z,10.60
2023-02-22T15:12:10.820Z,10.60
2023-02-22T15:14:41.724Z,10.50
2023-02-22T15:17:21.430Z,10.50
2023-02-22T15:19:49.112Z,10.50
2023-02-22T15:22:36.625Z,10.60
2023-02-22T15:25:06.766Z,10.50
2023-02-22T15:27:37.084Z,10.30
2023-02-22T15:30:09.849Z,10.30
2023-02-22T15:32:53.417Z,10.30
2023-02-22T15:35:30.305Z,10.30
2023-02-22T15:38:08.957Z,10.30
2023-02-22T15:40:36.041Z,10.20
2023-02-22T15:43:10.327Z,10.20
2023-02-22T15:45:42.922Z,10.10
2023-02-22T15:48:14.551Z,10.10
2023-02-22T15:51:10.616Z,10.10
2023-02-22T15:53:40.134Z,10.10
2023-02-22T15:56:12.399Z,10.00
2023-02-22T15:58:39.702Z,10.20
2023-02-22T16:01:17.352Z,10.10
2023-02-22T16:03:58.482Z,9.90
2023-02-22T16:06:35.391Z,9.90
2023-02-22T16:09:19.039Z,9.90
2023-02-22T16:11:46.858Z,9.80
2023-02-22T16:14:40.344Z,9.70
2023-02-22T16:17:25.716Z,9.70
2023-02-22T16:19:53.447Z,9.60
2023-02-22T16:22:33.971Z,9.60
2023-02-22T16:25:17.878Z,9.50
2023-02-22T16:28:06.092Z,9.50
2023-02-22T16:30:39.937Z,9.60
2023-02-22T16:33:13.796Z,9.60
2023-02-22T16:35:43.339Z,9.50
2023-02-22T16:38:16.888Z,9.50
2023-02-22T16:40:53.768Z,9.40
2023-02-22T16:43:24.256Z,9.40
2023-02-22T16:45:52.928Z,9.30
2023-02-22T16:48:23.521Z,9.30
2023-02-22T16:50:52.369Z,9.30
2023-02-22T16:53:23.187Z,9.30
2023-02-22T16:55:57.566Z,9.30
2023-02-22T16:58:27.911Z,9.30
2023-02-22T17:00:57.321Z,9.30
2023-02-22T17:03:25.316Z,9.40
2023-02-22T17:05:53.056Z,9.30
2023-02-22T17:08:19.943Z,9.30
2023-02-22T17:10:46.870Z,9.30
2023-02-22T17:13:23.093Z,9.30
2023-02-22T17:15:51.928Z,9.30
2023-02-22T17:18:23.395Z,9.20
2023-02-22T17:20:52.384Z,9.20
2023-02-22T17:23:19.859Z,9.20
2023-02-22T17:25:53.572Z,9.30
2023-02-22T17:28:21.435Z,9.20
2023-02-22T17:30:49.061Z,9.20
2023-02-22T17:33:18.576Z,9.20
2023-02-22T17:35:47.055Z,9.30
2023-02-22T17:38:18.444Z,9.20
2023-02-22T17:40:54.751Z,9.20
2023-02-22T17:43:22.735Z,9.10
2023-02-22T17:45:49.890Z,9.30
2023-02-22T17:48:18.182Z,9.10
2023-02-22T17:50:46.608Z,9.10
2023-02-22T17:53:14.093Z,9.20
2023-02-22T17:55:42.356Z,9.20
2023-02-22T17:58:14.701Z,9.20
2023-02-22T18:00:47.321Z,9.20
2023-02-22T18:03:21.122Z,9.20
2023-02-22T18:05:50.041Z,9.10
2023-02-22T18:08:17.324Z,9.20
2023-02-22T18:10:44.814Z,9.10
2023-02-22T18:13:19.647Z,9.10
2023-02-22T18:15:47.414Z,9.10
2023-02-22T18:18:17.630Z,9.10
2023-02-22T18:20:47.136Z,9.10
2023-02-22T18:23:16.772Z,9.10
2023-02-22T18:26:09.121Z,9.00
2023-02-22T18:28:37.620Z,9.00
2023-02-22T18:31:10.061Z,9.10
2023-02-22T18:33:37.061Z,9.20
2023-02-22T18:36:04.625Z,9.10
2023-02-22T18:38:31.799Z,9.00
2023-02-22T18:41:00.070Z,9.10
2023-02-22T18:43:27.469Z,9.00
2023-02-22T18:45:55.015Z,9.00
2023-02-22T18:48:21.784Z,9.10
2023-02-22T18:50:48.705Z,9.00
2023-02-22T18:53:15.800Z,9.00
2023-02-22T18:55:42.646Z,9.10
2023-02-22T18:58:11.137Z,9.10
2023-02-22T19:00:38.278Z,9.10
2023-02-22T19:03:05.817Z,9.10
2023-02-22T19:05:33.345Z,9.00
2023-02-22T19:08:01.130Z,9.10
2023-02-22T19:10:28.847Z,9.10
2023-02-22T19:12:55.753Z,9.10
2023-02-22T19:15:23.657Z,9.10
2023-02-22T19:17:50.472Z,9.10
2023-02-22T19:20:17.407Z,9.10
2023-02-22T19:22:45.853Z,8.90
2023-02-22T19:25:12.718Z,9.10
2023-02-22T19:27:41.672Z,9.00
2023-02-22T19:30:09.806Z,8.90
2023-02-22T19:32:37.333Z,8.90
2023-02-22T19:35:06.783Z,8.90
2023-02-22T19:37:35.541Z,8.90
2023-02-22T19:40:08.858Z,8.90
2023-02-22T19:42:35.772Z,8.90
2023-02-22T19:45:02.677Z,8.90
2023-02-22T19:47:29.717Z,8.90
2023-02-22T19:49:59.735Z,8.90
2023-02-22T19:52:28.929Z,9.00
2023-02-22T19:54:55.883Z,9.00
2023-02-22T19:57:24.253Z,8.90
2023-02-22T19:59:51.248Z,8.80
2023-02-22T20:02:18.180Z,8.80
2023-02-22T20:04:45.396Z,8.90
2023-02-22T20:07:12.273Z,8.80
2023-02-22T20:09:40.306Z,8.80
2023-02-22T20:12:07.804Z,8.80
2023-02-22T20:14:35.128Z,8.80
2023-02-22T20:17:02.361Z,8.80
2023-02-22T20:19:29.815Z,8.80
2023-02-22T20:21:56.823Z,8.70
2023-02-22T20:24:24.909Z,8.80
2023-02-22T20:26:55.679Z,8.70
2023-02-22T20:29:29.428Z,8.80
2023-02-22T20:32:00.968Z,8.80
2023-02-22T20:34:33.264Z,8.90
2023-02-22T20:37:01.052Z,8.70
2023-02-22T20:39:28.031Z,8.80
2023-02-22T20:41:55.044Z,8.80
2023-02-22T20:44:22.124Z,8.70
2023-02-22T20:46:49.067Z,8.70
2023-02-22T20:49:19.404Z,8.70
2023-02-22T20:51:48.059Z,8.80
2023-02-22T20:54:16.124Z,8.70
2023-02-22T20:56:45.210Z,8.70
2023-02-22T20:59:14.211Z,8.70
2023-02-22T21:01:42.124Z,8.70
2023-02-22T21:04:13.573Z,8.60
2023-02-22T21:06:41.444Z,8.60
2023-02-22T21:09:13.297Z,8.60
2023-02-22T21:11:40.262Z,8.60
2023-02-22T21:14:07.685Z,8.50
2023-02-22T21:16:37.048Z,8.60
2023-02-22T21:19:06.823Z,8.50
2023-02-22T21:21:35.435Z,8.50
2023-02-22T21:24:02.368Z,8.50
2023-02-22T21:26:33.968Z,8.50
2023-02-22T21:29:06.572Z,8.40
2023-02-22T21:31:36.241Z,8.40
2023-02-22T21:34:04.179Z,8.50
2023-02-22T21:36:31.981Z,8.40
2023-02-22T21:39:01.654Z,8.30
2023-02-22T21:41:30.929Z,8.40
2023-02-22T21:43:59.146Z,8.40
2023-02-22T21:46:27.918Z,8.30
2023-02-22T21:48:58.499Z,8.40
2023-02-22T21:51:31.587Z,8.40
2023-02-22T21:54:03.191Z,8.40
2023-02-22T21:56:34.318Z,8.40
2023-02-22T21:59:11.674Z,8.40
2023-02-22T22:01:47.527Z,8.40
2023-02-22T22:04:20.105Z,8.50
2023-02-22T22:06:49.531Z,8.50
2023-02-22T22:09:19.821Z,8.40
2023-02-22T22:11:53.515Z,8.50
2023-02-22T22:14:23.602Z,8.40
2023-02-22T22:16:59.454Z,8.40
2023-02-22T22:19:28.100Z,8.40
2023-02-22T22:21:55.544Z,8.40
2023-02-22T22:24:23.227Z,8.40
2023-02-22T22:26:54.541Z,8.40
2023-02-22T22:29:28.351Z,8.40
2023-02-22T22:31:55.703Z,8.40
2023-02-22T22:34:29.270Z,8.40
2023-02-22T22:37:00.345Z,8.50
2023-02-22T22:39:27.459Z,8.50
2023-02-22T22:41:54.580Z,8.50
2023-02-22T22:44:22.446Z,8.50
2023-02-22T22:46:53.556Z,8.50
2023-02-22T22:49:20.630Z,8.50
2023-02-22T22:51:47.605Z,8.50
2023-02-22T22:54:14.690Z,8.40
2023-02-22T22:56:41.602Z,8.50
2023-02-22T22:59:09.611Z,8.50
2023-02-22T23:01:40.422Z,8.50
2023-02-22T23:04:10.916Z,8.50
2023-02-22T23:06:40.770Z,8.50
2023-02-22T23:09:12.297Z,8.40
2023-02-22T23:11:45.105Z,8.30
2023-02-22T23:14:19.484Z,8.40
2023-02-22T23:16:51.518Z,8.40
2023-02-22T23:19:19.639Z,8.30
2023-02-22T23:21:48.665Z,8.30
2023-02-22T23:24:18.567Z,8.30
2023-02-22T23:26:48.894Z,8.40
2023-02-22T23:29:22.857Z,8.40
2023-02-22T23:31:50.318Z,8.50
2023-02-22T23:34:18.564Z,8.40
2023-02-22T23:36:45.416Z,8.30
2023-02-22T23:39:14.157Z,8.30
2023-02-22T23:41:42.450Z,8.30
2023-02-22T23:44:17.506Z,8.30
2023-02-22T23:46:48.074Z,8.30
2023-02-22T23:49:20.309Z,8.30
2023-02-22T23:51:47.688Z,8.40
2023-02-22T23:54:19.783Z,8.30
2023-02-22T23:56:56.410Z,8.30
2023-02-22T23:59:25.677Z,8.30
